sensor_id;sensor_type;location;lat;lon;timestamp;P1;durP1;ratioP1;P2;durP2;ratioP2
20597;SDS011;10457;48.770;11.446;2022-07-23T00:01:19;13.65;;;9.75;;
20597;SDS011;10457;48.770;11.446;2022-07-23T00:06:42;14.07;;;10.43;;
20597;SDS011;10457;48.770;11.446;2022-07-23T00:12:03;11.15;;;10.10;;
20597;SDS011;10457;48.770;11.446;2022-07-23T00:17:26;15.85;;;11.15;;
20597;SDS011;10457;48.770;11.446;2022-07-23T00:22:49;11.65;;;10.55;;
20597;SDS011;10457;48.770;11.446;2022-07-23T00:28:12;11.93;;;10.45;;
20597;SDS011;10457;48.770;11.446;2022-07-23T00:33:34;14.05;;;11.52;;
20597;SDS011;10457;48.770;11.446;2022-07-23T00:38:57;14.13;;;10.95;;
20597;SDS011;10457;48.770;11.446;2022-07-23T00:44:19;11.82;;;10.15;;
20597;SDS011;10457;48.770;11.446;2022-07-23T00:49:42;12.32;;;10.55;;
20597;SDS011;10457;48.770;11.446;2022-07-23T00:55:05;12.02;;;10.23;;
20597;SDS011;10457;48.770;11.446;2022-07-23T01:00:29;14.88;;;10.52;;
20597;SDS011;10457;48.770;11.446;2022-07-23T01:05:51;13.63;;;10.35;;
20597;SDS011;10457;48.770;11.446;2022-07-23T01:11:14;15.25;;;12.02;;
20597;SDS011;10457;48.770;11.446;2022-07-23T01:16:36;10.93;;;8.95;;
20597;SDS011;10457;48.770;11.446;2022-07-23T01:21:57;11.93;;;9.63;;
20597;SDS011;10457;48.770;11.446;2022-07-23T01:27:24;12.00;;;9.25;;
20597;SDS011;10457;48.770;11.446;2022-07-23T01:32:51;13.65;;;9.82;;
20597;SDS011;10457;48.770;11.446;2022-07-23T01:38:12;11.00;;;9.55;;
20597;SDS011;10457;48.770;11.446;2022-07-23T01:43:35;13.85;;;10.63;;
20597;SDS011;10457;48.770;11.446;2022-07-23T01:48:57;14.02;;;10.60;;
20597;SDS011;10457;48.770;11.446;2022-07-23T01:54:48;12.00;;;10.80;;
20597;SDS011;10457;48.770;11.446;2022-07-23T02:00:12;13.48;;;10.90;;
20597;SDS011;10457;48.770;11.446;2022-07-23T02:05:38;16.90;;;10.98;;
20597;SDS011;10457;48.770;11.446;2022-07-23T02:10:59;12.45;;;11.15;;
20597;SDS011;10457;48.770;11.446;2022-07-23T02:16:22;13.98;;;11.07;;
20597;SDS011;10457;48.770;11.446;2022-07-23T02:21:43;12.15;;;10.65;;
20597;SDS011;10457;48.770;11.446;2022-07-23T02:27:05;15.27;;;11.23;;
20597;SDS011;10457;48.770;11.446;2022-07-23T02:32:29;12.82;;;9.88;;
20597;SDS011;10457;48.770;11.446;2022-07-23T02:37:50;14.60;;;10.15;;
20597;SDS011;10457;48.770;11.446;2022-07-23T02:43:12;11.13;;;8.40;;
20597;SDS011;10457;48.770;11.446;2022-07-23T02:48:35;9.75;;;8.75;;
20597;SDS011;10457;48.770;11.446;2022-07-23T02:53:57;11.43;;;8.30;;
20597;SDS011;10457;48.770;11.446;2022-07-23T02:59:18;11.15;;;7.72;;
20597;SDS011;10457;48.770;11.446;2022-07-23T03:04:42;11.85;;;8.10;;
20597;SDS011;10457;48.770;11.446;2022-07-23T03:10:05;9.80;;;7.20;;
20597;SDS011;10457;48.770;11.446;2022-07-23T03:15:27;9.30;;;7.40;;
20597;SDS011;10457;48.770;11.446;2022-07-23T03:20:50;9.32;;;7.38;;
20597;SDS011;10457;48.770;11.446;2022-07-23T03:26:12;11.45;;;8.32;;
20597;SDS011;10457;48.770;11.446;2022-07-23T03:31:33;12.85;;;8.00;;
20597;SDS011;10457;48.770;11.446;2022-07-23T03:36:57;10.75;;;8.05;;
20597;SDS011;10457;48.770;11.446;2022-07-23T03:42:18;11.10;;;7.85;;
20597;SDS011;10457;48.770;11.446;2022-07-23T03:47:40;11.45;;;7.85;;
20597;SDS011;10457;48.770;11.446;2022-07-23T03:53:04;7.93;;;7.13;;
20597;SDS011;10457;48.770;11.446;2022-07-23T03:58:26;10.35;;;7.20;;
20597;SDS011;10457;48.770;11.446;2022-07-23T04:03:48;7.38;;;6.22;;
20597;SDS011;10457;48.770;11.446;2022-07-23T04:09:12;9.02;;;6.57;;
20597;SDS011;10457;48.770;11.446;2022-07-23T04:14:34;7.60;;;6.22;;
20597;SDS011;10457;48.770;11.446;2022-07-23T04:19:56;8.13;;;7.13;;
20597;SDS011;10457;48.770;11.446;2022-07-23T04:25:24;7.82;;;6.80;;
20597;SDS011;10457;48.770;11.446;2022-07-23T04:30:46;11.07;;;6.80;;
20597;SDS011;10457;48.770;11.446;2022-07-23T04:36:09;9.98;;;6.95;;
20597;SDS011;10457;48.770;11.446;2022-07-23T04:41:33;7.90;;;6.57;;
20597;SDS011;10457;48.770;11.446;2022-07-23T04:46:54;8.45;;;6.75;;
20597;SDS011;10457;48.770;11.446;2022-07-23T04:52:17;10.07;;;6.53;;
20597;SDS011;10457;48.770;11.446;2022-07-23T04:57:40;11.40;;;7.53;;
20597;SDS011;10457;48.770;11.446;2022-07-23T05:03:01;12.10;;;8.70;;
20597;SDS011;10457;48.770;11.446;2022-07-23T05:08:23;9.55;;;8.48;;
20597;SDS011;10457;48.770;11.446;2022-07-23T05:13:49;9.88;;;7.45;;
20597;SDS011;10457;48.770;11.446;2022-07-23T05:19:13;10.20;;;9.13;;
20597;SDS011;10457;48.770;11.446;2022-07-23T05:24:35;11.07;;;9.15;;
20597;SDS011;10457;48.770;11.446;2022-07-23T05:29:59;13.98;;;9.73;;
20597;SDS011;10457;48.770;11.446;2022-07-23T05:35:24;12.65;;;10.10;;
20597;SDS011;10457;48.770;11.446;2022-07-23T05:41:10;13.43;;;9.43;;
20597;SDS011;10457;48.770;11.446;2022-07-23T05:46:33;11.98;;;9.23;;
20597;SDS011;10457;48.770;11.446;2022-07-23T05:52:02;10.05;;;8.70;;
20597;SDS011;10457;48.770;11.446;2022-07-23T05:57:42;11.95;;;9.07;;
20597;SDS011;10457;48.770;11.446;2022-07-23T06:03:05;9.57;;;8.15;;
20597;SDS011;10457;48.770;11.446;2022-07-23T06:08:27;8.93;;;7.65;;
20597;SDS011;10457;48.770;11.446;2022-07-23T06:13:48;9.15;;;8.20;;
20597;SDS011;10457;48.770;11.446;2022-07-23T06:19:13;11.77;;;8.35;;
20597;SDS011;10457;48.770;11.446;2022-07-23T06:24:34;8.05;;;7.22;;
20597;SDS011;10457;48.770;11.446;2022-07-23T06:29:57;9.55;;;8.10;;
20597;SDS011;10457;48.770;11.446;2022-07-23T06:35:19;12.88;;;7.90;;
20597;SDS011;10457;48.770;11.446;2022-07-23T06:40:41;10.15;;;7.80;;
20597;SDS011;10457;48.770;11.446;2022-07-23T06:46:03;9.98;;;8.27;;
20597;SDS011;10457;48.770;11.446;2022-07-23T06:51:26;10.93;;;8.02;;
20597;SDS011;10457;48.770;11.446;2022-07-23T06:56:48;8.18;;;7.20;;
20597;SDS011;10457;48.770;11.446;2022-07-23T07:02:10;11.50;;;8.00;;
20597;SDS011;10457;48.770;11.446;2022-07-23T07:07:33;9.48;;;7.78;;
20597;SDS011;10457;48.770;11.446;2022-07-23T07:12:55;8.70;;;7.45;;
20597;SDS011;10457;48.770;11.446;2022-07-23T07:18:16;10.77;;;7.85;;
20597;SDS011;10457;48.770;11.446;2022-07-23T07:23:39;11.82;;;7.22;;
20597;SDS011;10457;48.770;11.446;2022-07-23T07:29:01;11.60;;;8.27;;
20597;SDS011;10457;48.770;11.446;2022-07-23T07:34:23;9.45;;;8.38;;
20597;SDS011;10457;48.770;11.446;2022-07-23T07:39:46;9.07;;;8.18;;
20597;SDS011;10457;48.770;11.446;2022-07-23T07:45:08;12.50;;;8.43;;
20597;SDS011;10457;48.770;11.446;2022-07-23T07:50:29;9.43;;;8.10;;
20597;SDS011;10457;48.770;11.446;2022-07-23T07:55:52;9.32;;;8.10;;
20597;SDS011;10457;48.770;11.446;2022-07-23T08:01:14;14.40;;;8.15;;
20597;SDS011;10457;48.770;11.446;2022-07-23T08:06:36;9.35;;;7.20;;
20597;SDS011;10457;48.770;11.446;2022-07-23T08:11:59;9.07;;;8.27;;
20597;SDS011;10457;48.770;11.446;2022-07-23T08:17:24;8.25;;;7.40;;
20597;SDS011;10457;48.770;11.446;2022-07-23T08:22:47;8.23;;;7.22;;
20597;SDS011;10457;48.770;11.446;2022-07-23T08:28:12;9.73;;;7.82;;
20597;SDS011;10457;48.770;11.446;2022-07-23T08:33:35;10.02;;;8.68;;
20597;SDS011;10457;48.770;11.446;2022-07-23T08:38:57;9.80;;;8.07;;
20597;SDS011;10457;48.770;11.446;2022-07-23T08:44:19;14.27;;;8.23;;
20597;SDS011;10457;48.770;11.446;2022-07-23T08:49:41;9.10;;;7.82;;
20597;SDS011;10457;48.770;11.446;2022-07-23T08:55:05;9.77;;;7.80;;
20597;SDS011;10457;48.770;11.446;2022-07-23T09:00:29;11.35;;;8.20;;
20597;SDS011;10457;48.770;11.446;2022-07-23T09:05:51;11.70;;;8.30;;
20597;SDS011;10457;48.770;11.446;2022-07-23T09:11:16;8.68;;;7.63;;
20597;SDS011;10457;48.770;11.446;2022-07-23T09:16:39;8.95;;;7.57;;
20597;SDS011;10457;48.770;11.446;2022-07-23T09:22:16;7.72;;;6.95;;
20597;SDS011;10457;48.770;11.446;2022-07-23T09:27:46;7.25;;;6.63;;
20597;SDS011;10457;48.770;11.446;2022-07-23T09:33:15;9.13;;;7.20;;
20597;SDS011;10457;48.770;11.446;2022-07-23T09:38:47;9.15;;;6.55;;
20597;SDS011;10457;48.770;11.446;2022-07-23T09:44:11;9.45;;;7.13;;
20597;SDS011;10457;48.770;11.446;2022-07-23T09:49:37;8.52;;;6.95;;
20597;SDS011;10457;48.770;11.446;2022-07-23T09:55:00;7.28;;;6.20;;
20597;SDS011;10457;48.770;11.446;2022-07-23T10:00:23;7.63;;;6.80;;
20597;SDS011;10457;48.770;11.446;2022-07-23T10:05:49;7.18;;;6.55;;
20597;SDS011;10457;48.770;11.446;2022-07-23T10:11:23;10.20;;;6.38;;
20597;SDS011;10457;48.770;11.446;2022-07-23T10:16:54;6.25;;;5.65;;
20597;SDS011;10457;48.770;11.446;2022-07-23T10:22:19;6.45;;;5.95;;
20597;SDS011;10457;48.770;11.446;2022-07-23T10:27:54;5.68;;;5.18;;
20597;SDS011;10457;48.770;11.446;2022-07-23T10:33:38;5.88;;;5.28;;
20597;SDS011;10457;48.770;11.446;2022-07-23T10:39:13;5.85;;;5.35;;
20597;SDS011;10457;48.770;11.446;2022-07-23T10:44:43;7.00;;;6.07;;
20597;SDS011;10457;48.770;11.446;2022-07-23T10:50:16;5.90;;;5.30;;
20597;SDS011;10457;48.770;11.446;2022-07-23T10:55:42;5.28;;;4.78;;
20597;SDS011;10457;48.770;11.446;2022-07-23T11:07:06;4.88;;;4.45;;
20597;SDS011;10457;48.770;11.446;2022-07-23T11:12:35;5.55;;;5.05;;
20597;SDS011;10457;48.770;11.446;2022-07-23T11:18:00;5.20;;;4.80;;
20597;SDS011;10457;48.770;11.446;2022-07-23T11:23:21;6.18;;;4.88;;
20597;SDS011;10457;48.770;11.446;2022-07-23T11:28:44;5.32;;;4.82;;
20597;SDS011;10457;48.770;11.446;2022-07-23T11:39:59;5.25;;;4.85;;
20597;SDS011;10457;48.770;11.446;2022-07-23T11:45:23;5.05;;;4.65;;
20597;SDS011;10457;48.770;11.446;2022-07-23T11:50:46;4.80;;;4.35;;
20597;SDS011;10457;48.770;11.446;2022-07-23T11:56:08;6.93;;;6.25;;
20597;SDS011;10457;48.770;11.446;2022-07-23T12:01:32;8.48;;;6.65;;
20597;SDS011;10457;48.770;11.446;2022-07-23T12:06:53;7.00;;;5.90;;
20597;SDS011;10457;48.770;11.446;2022-07-23T12:12:15;6.90;;;6.30;;
20597;SDS011;10457;48.770;11.446;2022-07-23T12:17:39;6.97;;;6.18;;
20597;SDS011;10457;48.770;11.446;2022-07-23T12:23:03;6.55;;;5.95;;
20597;SDS011;10457;48.770;11.446;2022-07-23T12:28:27;6.35;;;5.82;;
20597;SDS011;10457;48.770;11.446;2022-07-23T12:33:53;6.93;;;6.32;;
20597;SDS011;10457;48.770;11.446;2022-07-23T12:39:28;7.30;;;6.47;;
20597;SDS011;10457;48.770;11.446;2022-07-23T12:45:05;7.03;;;6.43;;
20597;SDS011;10457;48.770;11.446;2022-07-23T12:50:40;7.10;;;6.40;;
20597;SDS011;10457;48.770;11.446;2022-07-23T12:56:04;6.47;;;5.97;;
20597;SDS011;10457;48.770;11.446;2022-07-23T13:01:29;8.65;;;6.78;;
20597;SDS011;10457;48.770;11.446;2022-07-23T13:06:55;6.57;;;5.97;;
20597;SDS011;10457;48.770;11.446;2022-07-23T13:12:20;6.70;;;6.10;;
20597;SDS011;10457;48.770;11.446;2022-07-23T13:17:41;6.60;;;5.97;;
20597;SDS011;10457;48.770;11.446;2022-07-23T13:23:06;8.93;;;6.72;;
20597;SDS011;10457;48.770;11.446;2022-07-23T13:28:28;6.97;;;6.32;;
20597;SDS011;10457;48.770;11.446;2022-07-23T13:33:50;7.72;;;6.88;;
20597;SDS011;10457;48.770;11.446;2022-07-23T13:39:13;7.03;;;6.43;;
20597;SDS011;10457;48.770;11.446;2022-07-23T13:44:35;10.02;;;7.20;;
20597;SDS011;10457;48.770;11.446;2022-07-23T13:49:56;7.28;;;6.57;;
20597;SDS011;10457;48.770;11.446;2022-07-23T13:55:19;9.00;;;7.13;;
20597;SDS011;10457;48.770;11.446;2022-07-23T14:00:42;8.02;;;6.55;;
20597;SDS011;10457;48.770;11.446;2022-07-23T14:06:06;8.40;;;7.43;;
20597;SDS011;10457;48.770;11.446;2022-07-23T14:11:29;8.20;;;6.85;;
20597;SDS011;10457;48.770;11.446;2022-07-23T14:16:51;7.35;;;6.75;;
20597;SDS011;10457;48.770;11.446;2022-07-23T14:22:12;10.05;;;6.95;;
20597;SDS011;10457;48.770;11.446;2022-07-23T14:27:36;7.55;;;6.85;;
20597;SDS011;10457;48.770;11.446;2022-07-23T14:32:58;11.15;;;7.30;;
20597;SDS011;10457;48.770;11.446;2022-07-23T14:38:20;8.95;;;7.22;;
20597;SDS011;10457;48.770;11.446;2022-07-23T14:43:43;7.43;;;6.72;;
20597;SDS011;10457;48.770;11.446;2022-07-23T14:49:05;7.18;;;6.57;;
20597;SDS011;10457;48.770;11.446;2022-07-23T14:54:27;7.55;;;6.25;;
20597;SDS011;10457;48.770;11.446;2022-07-23T14:59:50;7.80;;;7.00;;
20597;SDS011;10457;48.770;11.446;2022-07-23T15:05:15;9.30;;;7.97;;
20597;SDS011;10457;48.770;11.446;2022-07-23T15:10:37;7.70;;;6.90;;
20597;SDS011;10457;48.770;11.446;2022-07-23T15:16:00;7.93;;;7.18;;
20597;SDS011;10457;48.770;11.446;2022-07-23T15:21:21;8.27;;;7.45;;
20597;SDS011;10457;48.770;11.446;2022-07-23T15:26:43;7.25;;;6.50;;
20597;SDS011;10457;48.770;11.446;2022-07-23T15:32:06;7.80;;;6.90;;
20597;SDS011;10457;48.770;11.446;2022-07-23T15:37:28;8.05;;;7.28;;
20597;SDS011;10457;48.770;11.446;2022-07-23T15:42:50;7.93;;;6.93;;
20597;SDS011;10457;48.770;11.446;2022-07-23T15:48:13;7.22;;;6.53;;
20597;SDS011;10457;48.770;11.446;2022-07-23T15:53:35;10.23;;;7.55;;
20597;SDS011;10457;48.770;11.446;2022-07-23T15:58:57;9.32;;;6.45;;
20597;SDS011;10457;48.770;11.446;2022-07-23T16:04:19;7.60;;;6.82;;
20597;SDS011;10457;48.770;11.446;2022-07-23T16:09:41;7.90;;;7.10;;
20597;SDS011;10457;48.770;11.446;2022-07-23T16:15:03;7.05;;;6.35;;
20597;SDS011;10457;48.770;11.446;2022-07-23T16:20:26;7.32;;;5.95;;
20597;SDS011;10457;48.770;11.446;2022-07-23T16:25:48;7.43;;;6.43;;
20597;SDS011;10457;48.770;11.446;2022-07-23T16:31:10;6.30;;;5.30;;
20597;SDS011;10457;48.770;11.446;2022-07-23T16:36:33;6.25;;;5.60;;
20597;SDS011;10457;48.770;11.446;2022-07-23T16:41:54;7.15;;;6.10;;
20597;SDS011;10457;48.770;11.446;2022-07-23T16:47:16;7.75;;;5.63;;
20597;SDS011;10457;48.770;11.446;2022-07-23T16:52:40;7.13;;;6.35;;
20597;SDS011;10457;48.770;11.446;2022-07-23T16:58:02;7.00;;;6.25;;
20597;SDS011;10457;48.770;11.446;2022-07-23T17:03:24;6.63;;;6.03;;
20597;SDS011;10457;48.770;11.446;2022-07-23T17:08:49;7.20;;;6.05;;
20597;SDS011;10457;48.770;11.446;2022-07-23T17:14:10;7.10;;;5.95;;
20597;SDS011;10457;48.770;11.446;2022-07-23T17:19:32;6.13;;;5.53;;
20597;SDS011;10457;48.770;11.446;2022-07-23T17:24:55;7.20;;;6.30;;
20597;SDS011;10457;48.770;11.446;2022-07-23T17:30:16;6.72;;;5.90;;
20597;SDS011;10457;48.770;11.446;2022-07-23T17:35:39;6.60;;;5.90;;
20597;SDS011;10457;48.770;11.446;2022-07-23T17:41:02;6.45;;;5.90;;
20597;SDS011;10457;48.770;11.446;2022-07-23T17:46:23;6.40;;;5.80;;
20597;SDS011;10457;48.770;11.446;2022-07-23T17:51:45;6.35;;;5.75;;
20597;SDS011;10457;48.770;11.446;2022-07-23T17:57:08;8.38;;;6.45;;
20597;SDS011;10457;48.770;11.446;2022-07-23T18:02:29;7.88;;;7.07;;
20597;SDS011;10457;48.770;11.446;2022-07-23T18:07:51;6.82;;;6.10;;
20597;SDS011;10457;48.770;11.446;2022-07-23T18:13:14;7.45;;;6.70;;
20597;SDS011;10457;48.770;11.446;2022-07-23T18:18:35;10.05;;;6.93;;
20597;SDS011;10457;48.770;11.446;2022-07-23T18:23:57;7.82;;;6.97;;
20597;SDS011;10457;48.770;11.446;2022-07-23T18:29:20;9.45;;;7.25;;
20597;SDS011;10457;48.770;11.446;2022-07-23T18:34:42;7.80;;;6.85;;
20597;SDS011;10457;48.770;11.446;2022-07-23T18:40:04;7.78;;;6.85;;
20597;SDS011;10457;48.770;11.446;2022-07-23T18:45:30;8.93;;;8.13;;
20597;SDS011;10457;48.770;11.446;2022-07-23T18:50:51;8.77;;;7.85;;
20597;SDS011;10457;48.770;11.446;2022-07-23T18:56:13;7.72;;;7.05;;
20597;SDS011;10457;48.770;11.446;2022-07-23T19:01:36;8.48;;;7.68;;
20597;SDS011;10457;48.770;11.446;2022-07-23T19:06:57;10.30;;;7.80;;
20597;SDS011;10457;48.770;11.446;2022-07-23T19:12:19;8.10;;;7.30;;
20597;SDS011;10457;48.770;11.446;2022-07-23T19:17:42;8.77;;;7.22;;
20597;SDS011;10457;48.770;11.446;2022-07-23T19:23:04;11.25;;;7.47;;
20597;SDS011;10457;48.770;11.446;2022-07-23T19:28:25;10.95;;;7.63;;
20597;SDS011;10457;48.770;11.446;2022-07-23T19:33:48;8.70;;;7.57;;
20597;SDS011;10457;48.770;11.446;2022-07-23T19:39:10;10.18;;;7.97;;
20597;SDS011;10457;48.770;11.446;2022-07-23T19:44:32;9.93;;;9.02;;
20597;SDS011;10457;48.770;11.446;2022-07-23T19:49:55;11.25;;;8.02;;
20597;SDS011;10457;48.770;11.446;2022-07-23T19:55:18;8.63;;;7.75;;
20597;SDS011;10457;48.770;11.446;2022-07-23T20:00:40;8.60;;;7.22;;
20597;SDS011;10457;48.770;11.446;2022-07-23T20:06:03;10.75;;;7.38;;
20597;SDS011;10457;48.770;11.446;2022-07-23T20:11:24;11.07;;;7.85;;
20597;SDS011;10457;48.770;11.446;2022-07-23T20:16:46;7.80;;;7.00;;
20597;SDS011;10457;48.770;11.446;2022-07-23T20:22:10;12.07;;;8.95;;
20597;SDS011;10457;48.770;11.446;2022-07-23T20:27:31;27.92;;;18.10;;
20597;SDS011;10457;48.770;11.446;2022-07-23T20:32:53;16.08;;;12.70;;
20597;SDS011;10457;48.770;11.446;2022-07-23T20:38:16;14.88;;;11.23;;
20597;SDS011;10457;48.770;11.446;2022-07-23T20:43:38;12.70;;;10.90;;
20597;SDS011;10457;48.770;11.446;2022-07-23T20:49:02;19.15;;;16.70;;
20597;SDS011;10457;48.770;11.446;2022-07-23T20:54:25;23.88;;;17.73;;
20597;SDS011;10457;48.770;11.446;2022-07-23T20:59:46;14.52;;;12.73;;
20597;SDS011;10457;48.770;11.446;2022-07-23T21:05:08;12.82;;;11.55;;
20597;SDS011;10457;48.770;11.446;2022-07-23T21:10:32;11.48;;;9.70;;
20597;SDS011;10457;48.770;11.446;2022-07-23T21:15:53;9.65;;;8.43;;
20597;SDS011;10457;48.770;11.446;2022-07-23T21:21:15;11.05;;;9.38;;
20597;SDS011;10457;48.770;11.446;2022-07-23T21:26:38;11.05;;;8.98;;
20597;SDS011;10457;48.770;11.446;2022-07-23T21:32:00;10.23;;;9.18;;
20597;SDS011;10457;48.770;11.446;2022-07-23T21:37:21;11.05;;;9.95;;
20597;SDS011;10457;48.770;11.446;2022-07-23T21:42:44;10.30;;;9.40;;
20597;SDS011;10457;48.770;11.446;2022-07-23T21:48:05;11.40;;;9.80;;
20597;SDS011;10457;48.770;11.446;2022-07-23T21:53:27;13.50;;;12.23;;
20597;SDS011;10457;48.770;11.446;2022-07-23T21:58:50;12.25;;;10.98;;
20597;SDS011;10457;48.770;11.446;2022-07-23T22:04:11;11.98;;;10.82;;
20597;SDS011;10457;48.770;11.446;2022-07-23T22:09:33;12.27;;;10.98;;
20597;SDS011;10457;48.770;11.446;2022-07-23T22:14:56;14.70;;;10.70;;
20597;SDS011;10457;48.770;11.446;2022-07-23T22:20:18;11.98;;;10.30;;
20597;SDS011;10457;48.770;11.446;2022-07-23T22:25:39;12.60;;;11.10;;
20597;SDS011;10457;48.770;11.446;2022-07-23T22:31:02;13.75;;;10.75;;
20597;SDS011;10457;48.770;11.446;2022-07-23T22:36:24;13.90;;;9.98;;
20597;SDS011;10457;48.770;11.446;2022-07-23T22:41:46;20.75;;;12.30;;
20597;SDS011;10457;48.770;11.446;2022-07-23T22:47:09;13.75;;;11.85;;
20597;SDS011;10457;48.770;11.446;2022-07-23T22:52:30;14.38;;;11.70;;
20597;SDS011;10457;48.770;11.446;2022-07-23T22:57:51;11.82;;;10.43;;
20597;SDS011;10457;48.770;11.446;2022-07-23T23:03:14;14.65;;;11.10;;
20597;SDS011;10457;48.770;11.446;2022-07-23T23:08:36;11.93;;;10.55;;
20597;SDS011;10457;48.770;11.446;2022-07-23T23:13:58;16.60;;;11.48;;
20597;SDS011;10457;48.770;11.446;2022-07-23T23:19:21;12.13;;;10.85;;
20597;SDS011;10457;48.770;11.446;2022-07-23T23:24:42;15.55;;;11.50;;
20597;SDS011;10457;48.770;11.446;2022-07-23T23:30:04;12.63;;;11.32;;
20597;SDS011;10457;48.770;11.446;2022-07-23T23:35:28;16.33;;;12.45;;
20597;SDS011;10457;48.770;11.446;2022-07-23T23:40:50;13.18;;;11.65;;
20597;SDS011;10457;48.770;11.446;2022-07-23T23:46:11;15.05;;;11.20;;
20597;SDS011;10457;48.770;11.446;2022-07-23T23:51:34;18.55;;;12.68;;
20597;SDS011;10457;48.770;11.446;2022-07-23T23:57:00;17.27;;;12.95;;
